Bridgeport, New York
Current Conditions -  °F | °C
As of 1:54 AM on Wednesday 26 Nov 2014 (Local Time) from KSYR Reporting Station
Overcast Overcast  
Wind Chill: -1°   Ceiling: 4500
Heat Index:   Visibility: 10mi
Dew Point: -4°   Wind: 8mph
Humidity: 62%   Direction: 250°WSW
Pressure: 30.22"   Gusts: NA
Location:  43.15°N, 75.97°W
Report Text: KSYR 260654Z 25007KT 10SM OVC045 03/M04 A3022 RMK AO2 SLP231 T00281039
Loading
Personal Weather Stations






























Interactive Weather Map New forecast layout! Learn more

10-Day Weather Forecast

Advertisements
Track Severe Weather on mobile